createdAt,value
2022-11-20T00:01:53.015Z,100743.25
2022-11-20T00:04:20.130Z,100739.31
2022-11-20T00:06:49.066Z,100741.09
2022-11-20T00:09:15.931Z,100743.06
2022-11-20T00:11:42.687Z,100744.03
2022-11-20T00:14:10.867Z,100745.03
2022-11-20T00:16:40.306Z,100744.88
2022-11-20T00:19:07.404Z,100737.63
2022-11-20T00:21:34.214Z,100736.66
2022-11-20T00:24:01.199Z,100729.47
2022-11-20T00:26:31.445Z,100725.84
2022-11-20T00:28:59.571Z,100722.91
2022-11-20T00:31:27.364Z,100722.22
2022-11-20T00:33:54.286Z,100723.19
2022-11-20T00:36:25.783Z,100716.97
2022-11-20T00:38:57.424Z,100701.88
2022-11-20T00:41:24.679Z,100706.31
2022-11-20T00:43:53.085Z,100704.66
2022-11-20T00:46:21.270Z,100696.91
2022-11-20T00:48:48.309Z,100694.13
2022-11-20T00:51:16.161Z,100696.63
2022-11-20T00:53:44.463Z,100693.00
2022-11-20T00:56:15.666Z,100690.19
2022-11-20T00:58:49.398Z,100680.50
2022-11-20T01:01:17.515Z,100683.00
2022-11-20T01:03:54.923Z,100679.53
2022-11-20T01:06:29.383Z,100678.72
2022-11-20T01:08:57.545Z,100678.06
2022-11-20T01:11:25.943Z,100681.19
2022-11-20T01:13:53.864Z,100673.31
2022-11-20T01:16:23.323Z,100667.06
2022-11-20T01:18:51.570Z,100662.78
2022-11-20T01:21:20.345Z,100667.06
2022-11-20T01:23:47.887Z,100666.09
2022-11-20T01:26:16.042Z,100657.38
2022-11-20T01:28:43.199Z,100659.84
2022-11-20T01:31:14.362Z,100662.31
2022-11-20T01:33:42.485Z,100654.41
2022-11-20T01:36:09.871Z,100652.63
2022-11-20T01:38:37.199Z,100640.44
2022-11-20T01:41:04.405Z,100637.66
2022-11-20T01:43:32.978Z,100640.31
2022-11-20T01:46:05.193Z,100636.84
2022-11-20T01:48:52.339Z,100628.81
2022-11-20T01:51:37.996Z,100627.97
2022-11-20T01:54:07.480Z,100618.09
2022-11-20T01:56:37.594Z,100615.47
2022-11-20T01:59:09.379Z,100605.97
2022-11-20T02:01:36.448Z,100609.38
2022-11-20T02:04:06.342Z,100594.13
2022-11-20T02:06:37.254Z,100595.59
2022-11-20T02:09:04.114Z,100600.72
2022-11-20T02:11:31.578Z,100593.66
2022-11-20T02:13:59.081Z,100584.78
2022-11-20T02:16:33.097Z,100586.41
2022-11-20T02:19:03.373Z,100582.31
2022-11-20T02:21:33.243Z,100587.25
2022-11-20T02:24:04.622Z,100574.75
2022-11-20T02:26:35.108Z,100571.31
2022-11-20T02:29:05.971Z,100570.19
2022-11-20T02:31:38.033Z,100560.31
2022-11-20T02:34:05.250Z,100567.06
2022-11-20T02:36:33.393Z,100555.53
2022-11-20T02:39:01.615Z,100547.50
2022-11-20T02:41:35.156Z,100550.78
2022-11-20T02:44:01.994Z,100540.28
2022-11-20T02:46:29.022Z,100537.47
2022-11-20T02:48:56.093Z,100535.66
2022-11-20T02:51:23.019Z,100534.03
2022-11-20T02:53:50.105Z,100530.03
2022-11-20T02:56:17.144Z,100516.06
2022-11-20T02:58:43.943Z,100517.06
2022-11-20T03:01:10.857Z,100519.53
2022-11-20T03:03:37.736Z,100523.66
2022-11-20T03:06:07.782Z,100511.97
2022-11-20T03:08:34.781Z,100509.19
2022-11-20T03:14:19.995Z,100508.69
2022-11-20T03:16:47.254Z,100500.97
2022-11-20T03:19:14.320Z,100499.81
2022-11-20T03:21:41.231Z,100493.59
2022-11-20T03:24:08.547Z,100499.81
2022-11-20T03:26:35.332Z,100497.03
2022-11-20T03:29:05.852Z,100494.41
2022-11-20T03:31:34.046Z,100482.22
2022-11-20T03:34:04.033Z,100480.91
2022-11-20T03:36:31.497Z,100480.09
2022-11-20T03:38:58.585Z,100481.75
2022-11-20T03:41:26.693Z,100472.69
2022-11-20T03:43:55.021Z,100469.91
2022-11-20T03:46:22.014Z,100475.97
2022-11-20T03:48:51.948Z,100463.81
2022-11-20T03:51:23.484Z,100467.25
2022-11-20T03:53:51.057Z,100459.69
2022-11-20T03:56:19.447Z,100449.34
2022-11-20T03:58:46.537Z,100452.94
2022-11-20T04:01:17.768Z,100455.72
2022-11-20T04:03:45.102Z,100448.81
2022-11-20T04:06:19.400Z,100436.97
2022-11-20T04:08:50.992Z,100431.06
2022-11-20T04:11:21.791Z,100422.50
2022-11-20T04:13:50.457Z,100427.09
2022-11-20T04:16:20.377Z,100431.88
2022-11-20T04:18:47.395Z,100424.97
2022-11-20T04:21:14.237Z,100421.69
2022-11-20T04:23:41.172Z,100417.56
2022-11-20T04:26:09.301Z,100416.75
2022-11-20T04:28:36.521Z,100419.69
2022-11-20T04:31:06.025Z,100406.84
2022-11-20T04:33:34.213Z,100409.50
2022-11-20T04:36:08.968Z,100393.91
2022-11-20T04:38:35.875Z,100398.31
2022-11-20T04:41:03.555Z,100398.47
2022-11-20T04:43:30.867Z,100403.09
2022-11-20T04:45:58.419Z,100398.81
2022-11-20T04:48:28.199Z,100393.56
2022-11-20T04:50:55.256Z,100396.00
2022-11-20T04:53:22.565Z,100390.94
2022-11-20T04:55:49.737Z,100385.47
2022-11-20T04:58:17.087Z,100382.06
2022-11-20T05:01:20.848Z,100376.28
2022-11-20T05:03:47.568Z,100364.94
2022-11-20T05:06:15.871Z,100364.13
2022-11-20T05:08:42.990Z,100341.28
2022-11-20T05:11:10.973Z,100344.91
2022-11-20T05:13:38.405Z,100335.19
2022-11-20T05:16:06.549Z,100335.19
2022-11-20T05:18:34.363Z,100332.56
2022-11-20T05:21:01.567Z,100321.25
2022-11-20T05:23:28.841Z,100323.88
2022-11-20T05:25:59.117Z,100323.88
2022-11-20T05:28:26.892Z,100323.88
2022-11-20T05:30:54.914Z,100310.72
2022-11-20T05:33:22.306Z,100306.94
2022-11-20T05:35:49.732Z,100301.50
2022-11-20T05:38:16.630Z,100305.59
2022-11-20T05:40:43.409Z,100299.53
2022-11-20T05:43:10.318Z,100301.16
2022-11-20T05:45:37.148Z,100298.03
2022-11-20T05:48:04.011Z,100301.34
2022-11-20T05:50:31.482Z,100301.19
2022-11-20T05:53:01.533Z,100286.03
2022-11-20T05:55:28.741Z,100288.50
2022-11-20T05:57:56.167Z,100286.38
2022-11-20T06:00:23.613Z,100292.28
2022-11-20T06:02:55.397Z,100275.69
2022-11-20T06:05:22.243Z,100272.06
2022-11-20T06:07:48.955Z,100277.34
2022-11-20T06:10:15.948Z,100266.00
2022-11-20T06:12:42.796Z,100266.97
2022-11-20T06:15:09.770Z,100255.63
2022-11-20T06:17:36.601Z,100257.44
2022-11-20T06:20:03.524Z,100249.38
2022-11-20T06:22:30.295Z,100236.22
2022-11-20T06:28:18.263Z,100223.72
2022-11-20T06:30:48.262Z,100231.59
2022-11-20T06:33:15.219Z,100223.91
2022-11-20T06:35:42.064Z,100217.00
2022-11-20T06:38:08.835Z,100221.25
2022-11-20T06:41:22.558Z,100220.28
2022-11-20T06:43:50.895Z,100216.63
2022-11-20T06:46:21.004Z,100224.38
2022-11-20T06:48:50.916Z,100219.09
2022-11-20T06:51:18.111Z,100221.59
2022-11-20T06:53:44.860Z,100220.25
2022-11-20T06:56:11.870Z,100215.31
2022-11-20T06:58:38.614Z,100218.59
2022-11-20T07:01:13.789Z,100225.31
2022-11-20T07:04:21.277Z,100236.50
2022-11-20T07:06:49.880Z,100249.66
2022-11-20T07:09:17.601Z,100252.28
2022-11-20T07:11:44.579Z,100233.06
2022-11-20T07:14:11.653Z,100220.88
2022-11-20T07:16:38.513Z,100208.88
2022-11-20T07:19:08.402Z,100207.06
2022-11-20T07:21:35.275Z,100212.50
2022-11-20T07:24:02.063Z,100212.50
2022-11-20T07:26:28.865Z,100205.75
2022-11-20T07:28:55.804Z,100203.91
2022-11-20T07:31:24.662Z,100222.34
2022-11-20T07:33:51.513Z,100212.63
2022-11-20T07:36:18.413Z,100218.56
2022-11-20T07:38:45.208Z,100220.00
2022-11-20T07:41:12.007Z,100210.31
2022-11-20T07:43:41.373Z,100212.94
2022-11-20T07:46:08.505Z,100206.84
2022-11-20T07:48:35.449Z,100208.69
2022-11-20T07:51:04.774Z,100208.03
2022-11-20T07:53:31.548Z,100212.13
2022-11-20T07:56:03.679Z,100198.16
2022-11-20T07:58:31.210Z,100214.59
2022-11-20T08:01:01.071Z,100219.03
2022-11-20T08:03:28.097Z,100214.44
2022-11-20T08:05:54.928Z,100223.97
2022-11-20T08:08:22.722Z,100223.97
2022-11-20T08:10:59.029Z,100230.06
2022-11-20T08:13:44.704Z,100229.88
2022-11-20T08:16:11.698Z,100228.88
2022-11-20T08:18:38.640Z,100238.44
2022-11-20T08:21:07.415Z,100239.25
2022-11-20T08:23:39.622Z,100254.69
2022-11-20T08:26:06.455Z,100254.69
2022-11-20T08:28:36.106Z,100265.88
2022-11-20T08:31:03.494Z,100271.81
2022-11-20T08:33:31.211Z,100271.16
2022-11-20T08:36:02.221Z,100266.09
2022-11-20T08:38:35.046Z,100272.81
2022-11-20T08:47:38.635Z,100278.75
2022-11-20T08:50:05.723Z,100275.28
2022-11-20T08:52:39.722Z,100280.69
2022-11-20T08:55:07.523Z,100288.94
2022-11-20T08:57:34.917Z,100279.72
2022-11-20T09:00:06.405Z,100291.91
2022-11-20T09:02:40.348Z,100290.91
2022-11-20T09:05:07.826Z,100291.06
2022-11-20T09:07:39.262Z,100289.59
2022-11-20T09:10:23.515Z,100291.91
2022-11-20T09:13:03.238Z,100287.94
2022-11-20T09:15:31.637Z,100289.75
2022-11-20T09:23:24.739Z,100280.50
2022-11-20T09:28:37.388Z,100289.53
2022-11-20T09:31:17.248Z,100299.06
2022-11-20T09:42:01.416Z,100308.97
2022-11-20T09:47:45.525Z,100308.97
2022-11-20T09:50:34.286Z,100315.25
2022-11-20T09:53:03.783Z,100325.78
2022-11-20T09:55:32.344Z,100318.03
2022-11-20T09:58:09.040Z,100306.69
2022-11-20T10:00:46.608Z,100297.28
2022-11-20T10:06:15.326Z,100284.13
2022-11-20T10:09:02.564Z,100286.13
2022-11-20T10:11:38.777Z,100287.44
2022-11-20T10:14:28.199Z,100295.47
2022-11-20T10:20:00.478Z,100295.47
2022-11-20T10:22:29.525Z,100288.53
2022-11-20T10:25:15.097Z,100288.50
2022-11-20T10:27:41.834Z,100283.19
2022-11-20T10:30:11.903Z,100281.22
2022-11-20T10:32:43.628Z,100278.41
2022-11-20T10:35:39.753Z,100279.22
2022-11-20T10:38:13.001Z,100277.91
2022-11-20T10:40:42.131Z,100284.28
2022-11-20T10:43:18.468Z,100284.59
2022-11-20T10:45:51.609Z,100283.72
2022-11-20T10:48:23.310Z,100287.34
2022-11-20T10:51:03.447Z,100289.97
2022-11-20T10:53:52.200Z,100283.69
2022-11-20T10:56:42.385Z,100280.06
2022-11-20T10:59:37.500Z,100281.22
2022-11-20T11:02:16.280Z,100286.38
2022-11-20T11:05:03.603Z,100287.66
2022-11-20T11:07:35.454Z,100292.25
2022-11-20T11:10:02.354Z,100288.28
2022-11-20T11:12:30.790Z,100291.59
2022-11-20T11:15:01.471Z,100288.50
2022-11-20T11:20:54.393Z,100283.34
2022-11-20T11:23:30.750Z,100288.13
2022-11-20T11:26:00.753Z,100290.91
2022-11-20T11:28:29.246Z,100291.00
2022-11-20T11:30:58.367Z,100286.22
2022-11-20T11:33:32.570Z,100275.31
2022-11-20T11:36:18.085Z,100285.00
2022-11-20T11:38:45.385Z,100284.81
2022-11-20T11:41:20.695Z,100284.09
2022-11-20T11:44:13.860Z,100271.88
2022-11-20T11:46:46.602Z,100272.31
2022-11-20T11:49:14.801Z,100266.50
2022-11-20T11:52:22.289Z,100261.88
2022-11-20T11:54:56.368Z,100253.44
2022-11-20T11:57:30.797Z,100251.09
2022-11-20T11:59:58.171Z,100248.72
2022-11-20T12:03:00.204Z,100252.81
2022-11-20T12:05:27.243Z,100253.47
2022-11-20T12:08:00.806Z,100253.09
2022-11-20T12:10:30.498Z,100257.81
2022-11-20T12:13:06.243Z,100255.84
2022-11-20T12:15:35.357Z,100256.66
2022-11-20T12:18:02.684Z,100253.19
2022-11-20T12:20:36.589Z,100251.66
2022-11-20T12:23:09.032Z,100262.06
2022-11-20T12:25:39.660Z,100271.78
2022-11-20T12:28:24.980Z,100262.69
2022-11-20T12:31:11.878Z,100269.72
2022-11-20T12:33:48.644Z,100268.69
2022-11-20T12:36:34.216Z,100269.34
2022-11-20T12:39:07.304Z,100276.88
2022-11-20T12:41:56.329Z,100275.06
2022-11-20T12:44:48.008Z,100286.28
2022-11-20T12:47:31.452Z,100294.47
2022-11-20T12:50:07.114Z,100280.06
2022-11-20T12:52:40.674Z,100279.28
2022-11-20T12:55:15.577Z,100283.38
2022-11-20T12:58:00.779Z,100282.19
2022-11-20T13:00:27.822Z,100285.00
2022-11-20T13:02:58.320Z,100290.13
2022-11-20T13:05:43.765Z,100292.94
2022-11-20T13:08:16.716Z,100287.66
2022-11-20T13:11:21.044Z,100290.94
2022-11-20T13:14:00.129Z,100288.31
2022-11-20T13:16:34.841Z,100301.31
2022-11-20T13:19:05.840Z,100302.94
2022-11-20T13:21:43.220Z,100304.78
2022-11-20T13:24:27.266Z,100303.78
2022-11-20T13:27:06.383Z,100299.03
2022-11-20T13:29:34.251Z,100299.59
2022-11-20T13:32:08.353Z,100304.59
2022-11-20T13:34:36.792Z,100312.69
2022-11-20T13:37:07.239Z,100315.16
2022-11-20T13:39:35.673Z,100321.41
2022-11-20T13:42:15.703Z,100314.88
2022-11-20T13:44:52.212Z,100320.16
2022-11-20T13:47:29.061Z,100303.94
2022-11-20T13:50:00.605Z,100314.31
2022-11-20T13:52:27.368Z,100313.50
2022-11-20T13:55:02.968Z,100300.31
2022-11-20T13:57:29.795Z,100298.28
2022-11-20T14:00:06.105Z,100287.66
2022-11-20T14:02:33.222Z,100278.06
2022-11-20T14:05:01.841Z,100265.88
2022-11-20T14:07:56.986Z,100267.25
2022-11-20T14:10:32.362Z,100261.97
2022-11-20T14:13:02.213Z,100264.44
2022-11-20T14:15:31.244Z,100268.34
2022-11-20T14:18:01.636Z,100267.50
2022-11-20T14:20:32.548Z,100256.50
2022-11-20T14:22:59.615Z,100261.59
2022-11-20T14:25:32.218Z,100250.84
2022-11-20T14:28:00.147Z,100250.22
2022-11-20T14:30:28.586Z,100259.97
2022-11-20T14:33:02.782Z,100259.78
2022-11-20T14:35:32.422Z,100270.16
2022-11-20T14:37:59.369Z,100273.78
2022-11-20T14:40:26.171Z,100283.06
2022-11-20T14:42:54.376Z,100292.16
2022-11-20T14:45:21.943Z,100292.81
2022-11-20T14:47:49.555Z,100286.88
2022-11-20T14:50:16.342Z,100284.06
2022-11-20T14:52:55.478Z,100287.38
2022-11-20T14:55:29.848Z,100290.81
2022-11-20T14:58:02.361Z,100288.81
2022-11-20T15:03:47.406Z,100282.25
2022-11-20T15:06:14.303Z,100275.59
2022-11-20T15:08:51.515Z,100282.25
2022-11-20T15:11:19.598Z,100285.06
2022-11-20T15:13:46.956Z,100278.16
2022-11-20T15:16:27.287Z,100284.63
2022-11-20T15:18:54.062Z,100278.50
2022-11-20T15:21:22.327Z,100277.06
2022-11-20T15:23:51.993Z,100271.59
2022-11-20T15:26:24.855Z,100263.66
2022-11-20T15:28:51.854Z,100258.38
2022-11-20T15:31:25.396Z,100269.50
2022-11-20T15:33:54.013Z,100269.69
2022-11-20T15:39:39.171Z,100265.75
2022-11-20T15:42:05.945Z,100285.03
2022-11-20T15:44:32.685Z,100275.31
2022-11-20T15:47:02.195Z,100273.88
2022-11-20T15:52:53.211Z,100274.22
2022-11-20T15:55:20.122Z,100267.47
2022-11-20T15:57:47.047Z,100262.75
2022-11-20T16:00:14.826Z,100273.63
2022-11-20T16:03:20.439Z,100276.28
2022-11-20T16:05:47.216Z,100281.75
2022-11-20T16:08:14.096Z,100277.19
2022-11-20T16:10:41.546Z,100274.06
2022-11-20T16:13:33.042Z,100275.06
2022-11-20T16:16:03.063Z,100280.53
2022-11-20T16:18:33.511Z,100272.31
2022-11-20T16:21:00.423Z,100280.59
2022-11-20T16:23:27.180Z,100273.47
2022-11-20T16:25:54.072Z,100274.50
2022-11-20T16:28:22.754Z,100283.72
2022-11-20T16:30:49.493Z,100283.94
2022-11-20T16:33:17.162Z,100282.94
2022-11-20T16:35:44.133Z,100282.44
2022-11-20T16:38:11.098Z,100279.00
2022-11-20T16:40:38.250Z,100280.00
2022-11-20T16:43:12.589Z,100277.38
2022-11-20T16:45:43.325Z,100285.63
2022-11-20T16:48:14.141Z,100292.53
2022-11-20T16:50:49.030Z,100298.19
2022-11-20T16:53:16.075Z,100303.63
2022-11-20T16:55:42.856Z,100294.53
2022-11-20T16:58:09.876Z,100297.97
2022-11-20T17:00:44.493Z,100292.53
2022-11-20T17:03:14.222Z,100304.75
2022-11-20T17:05:41.149Z,100302.63
2022-11-20T17:08:07.927Z,100309.53
2022-11-20T17:10:37.293Z,100312.34
2022-11-20T17:13:04.043Z,100309.06
2022-11-20T17:15:31.612Z,100311.06
2022-11-20T17:17:58.611Z,100313.88
2022-11-20T17:20:25.628Z,100317.34
2022-11-20T17:23:00.292Z,100321.63
2022-11-20T17:25:29.719Z,100324.41
2022-11-20T17:34:32.990Z,100330.53
2022-11-20T17:37:00.182Z,100333.53
2022-11-20T17:39:30.086Z,100326.78
2022-11-20T17:42:15.791Z,100334.06
2022-11-20T17:44:45.838Z,100338.34
2022-11-20T17:47:13.313Z,100354.84
2022-11-20T17:49:40.152Z,100352.69
2022-11-20T17:52:07.307Z,100371.47
2022-11-20T17:54:34.419Z,100370.66
2022-11-20T17:57:19.965Z,100364.38
2022-11-20T17:59:47.248Z,100370.00
2022-11-20T18:02:14.539Z,100375.97
2022-11-20T18:04:41.408Z,100375.28
2022-11-20T18:07:08.283Z,100385.38
2022-11-20T18:09:35.351Z,100388.16
2022-11-20T18:12:08.717Z,100382.25
2022-11-20T18:14:36.810Z,100377.16
2022-11-20T18:17:03.520Z,100382.94
2022-11-20T18:19:32.880Z,100386.06
2022-11-20T18:22:02.043Z,100385.91
2022-11-20T18:24:29.360Z,100386.91
2022-11-20T18:26:58.565Z,100377.53
2022-11-20T18:29:28.010Z,100383.63
2022-11-20T18:32:01.126Z,100396.59
2022-11-20T18:34:29.101Z,100399.25
2022-11-20T19:12:16.299Z,100412.47
2022-11-20T19:17:24.426Z,100421.03
2022-11-20T19:19:51.845Z,100412.47
2022-11-20T19:22:18.607Z,100422.81
2022-11-20T19:24:46.265Z,100416.72
2022-11-20T19:27:13.253Z,100420.88
2022-11-20T19:29:40.283Z,100421.03
2022-11-20T19:32:07.152Z,100418.56
2022-11-20T19:37:53.855Z,100419.56
2022-11-20T19:40:20.665Z,100418.72
2022-11-20T19:42:54.250Z,100429.25
2022-11-20T19:45:21.163Z,100435.03
2022-11-20T19:50:34.990Z,100440.78
2022-11-20T19:53:01.963Z,100453.28
2022-11-20T19:55:28.778Z,100450.97
2022-11-20T19:57:56.971Z,100451.28
2022-11-20T20:00:29.440Z,100457.88
2022-11-20T20:02:59.523Z,100456.72
2022-11-20T20:05:26.454Z,100468.06
2022-11-20T20:07:53.334Z,100466.25
2022-11-20T20:13:38.341Z,100447.00
2022-11-20T20:16:12.383Z,100451.44
2022-11-20T20:18:39.394Z,100455.72
2022-11-20T20:21:13.147Z,100455.72
2022-11-20T20:24:20.609Z,100453.75
2022-11-20T20:26:47.636Z,100462.16
2022-11-20T20:29:22.637Z,100461.97
2022-11-20T20:31:49.655Z,100466.06
2022-11-20T20:34:16.458Z,100479.41
2022-11-20T20:36:43.415Z,100484.69
2022-11-20T20:39:11.066Z,100481.53
2022-11-20T20:41:38.054Z,100482.19
2022-11-20T20:44:23.497Z,100485.66
2022-11-20T20:46:52.425Z,100485.81
2022-11-20T20:49:19.344Z,100487.44
2022-11-20T20:51:46.181Z,100490.09
2022-11-20T20:54:13.067Z,100491.88
2022-11-20T20:56:39.908Z,100471.50
2022-11-20T20:59:09.716Z,100480.88
2022-11-20T21:01:38.908Z,100480.53
2022-11-20T21:04:06.174Z,100490.25
2022-11-20T21:06:33.073Z,100496.66
2022-11-20T21:09:00.167Z,100495.00
2022-11-20T21:11:27.076Z,100508.16
2022-11-20T21:13:54.190Z,100509.31
2022-11-20T21:16:23.143Z,100497.97
2022-11-20T21:18:50.390Z,100510.31
2022-11-20T21:21:36.251Z,100513.91
2022-11-20T21:24:03.318Z,100510.59
2022-11-20T21:26:30.284Z,100502.56
2022-11-20T21:28:57.538Z,100487.91
2022-11-20T21:31:27.601Z,100486.25
2022-11-20T21:33:56.110Z,100489.56
2022-11-20T21:36:24.189Z,100486.59
2022-11-20T21:38:52.006Z,100472.63
2022-11-20T21:41:51.015Z,100481.00
2022-11-20T21:47:59.526Z,100464.72
2022-11-20T21:50:44.866Z,100470.94
2022-11-20T21:53:39.473Z,100469.16
2022-11-20T21:56:07.544Z,100464.03
2022-11-20T21:58:35.618Z,100463.69
2022-11-20T22:01:12.816Z,100464.03
2022-11-20T22:03:39.864Z,100454.97
2022-11-20T22:06:07.766Z,100448.69
2022-11-20T22:08:36.273Z,100446.84
2022-11-20T22:11:07.638Z,100445.69
2022-11-20T22:16:36.356Z,100454.78
2022-11-20T22:19:04.174Z,100446.88
2022-11-20T22:22:21.063Z,100448.84
2022-11-20T22:24:47.929Z,100442.72
2022-11-20T22:27:14.865Z,100430.88
2022-11-20T22:29:41.943Z,100435.63
2022-11-20T22:32:10.796Z,100427.25
2022-11-20T22:35:21.604Z,100423.94
2022-11-20T22:37:51.164Z,100410.94
2022-11-20T22:40:18.351Z,100402.03
2022-11-20T22:42:54.250Z,100410.75
2022-11-20T22:45:21.242Z,100407.47
2022-11-20T22:47:48.067Z,100401.88
2022-11-20T22:50:14.914Z,100392.47
2022-11-20T22:52:57.869Z,100392.28
2022-11-20T22:55:24.882Z,100388.19
2022-11-20T22:57:51.670Z,100382.72
2022-11-20T23:00:18.897Z,100386.31
2022-11-20T23:02:56.192Z,100393.44
2022-11-20T23:05:23.148Z,100403.63
2022-11-20T23:07:49.977Z,100419.91
2022-11-20T23:10:17.014Z,100426.97
2022-11-20T23:12:57.639Z,100418.91
2022-11-20T23:15:33.522Z,100432.72
2022-11-20T23:18:02.582Z,100435.84
2022-11-20T23:20:31.757Z,100423.06
2022-11-20T23:22:59.602Z,100421.78
2022-11-20T23:25:29.545Z,100426.50
2022-11-20T23:27:56.497Z,100429.31
2022-11-20T23:30:23.306Z,100425.03
2022-11-20T23:32:57.649Z,100417.97
2022-11-20T23:35:24.492Z,100417.31
2022-11-20T23:37:51.285Z,100405.13
2022-11-20T23:40:18.164Z,100403.66
2022-11-20T23:43:15.547Z,100408.38
2022-11-20T23:45:47.205Z,100398.00
2022-11-20T23:48:14.641Z,100388.19
2022-11-20T23:50:42.078Z,100378.50
2022-11-20T23:53:27.415Z,100376.03
2022-11-20T23:55:58.104Z,100386.38
2022-11-20T23:58:28.630Z,100374.72
